Hiload Dp1 — 5BML2 — position and weather

sailwx.info

Track history (hours):
 
Tides and Currents Weather Stations Pressure Air Temp Water Temp Dewpoint Dewpoint Depression Visibility Wind Speed Wind Dir Waves Ship Positions

Hiload Dp1

Last reported at 2015-Aug-04 12:07 UTC. Time now 2015-Sep-03 12:56 UTC.
Position S 22°26' W 041°01'.
Warning: this ship's position is 30 days out of date.

Length 28 m; draft 25.5 m.

Type: Other ship. MMSI: 210168000.

Date/timePositionNaut miles runAvg speedWind from/ knotsBaromVisibWave heightAir tempDewpointWater temp
2015-Aug-04 12:07S 22°26' W 041°01'36 3.3
2015-Aug-04 01:11S 22°47' W 041°32'2 3.4
2015-Aug-04 00:33S 22°49' W 041°34'2 1.6
2015-Aug-03 23:33S 22°50' W 041°35'3 3.3
2015-Aug-03 22:31S 22°52' W 041°38'3 3.2
2015-Aug-03 21:29S 22°54' W 041°41'3 3.3
2015-Aug-03 20:32S 22°56' W 041°43'3 3.3
2015-Aug-03 19:30S 22°58' W 041°46'3 3.4
2015-Aug-03 18:33S 22°60' W 041°49'3 3.1
2015-Aug-03 17:31S 23°02' W 041°52'  
Track history (hours):
 
Tides and Currents Weather Stations Pressure Air Temp Water Temp Dewpoint Dewpoint Depression Visibility Wind Speed Wind Dir Waves Ship Positions

Hiload Dp1

Last reported at 2015-Aug-04 12:07 UTC. Time now 2015-Sep-03 12:56 UTC.
Position S 22°26' W 041°01'.
Warning: this ship's position is 30 days out of date.

Length 28 m; draft 25.5 m.

Type: Other ship. MMSI: 210168000.

Date/timePositionNaut miles runAvg speedWind from/ knotsBaromVisibWave heightAir tempDewpointWater temp
2015-Aug-04 12:07S 22°26' W 041°01'36 3.3
2015-Aug-04 01:11S 22°47' W 041°32'2 3.4
2015-Aug-04 00:33S 22°49' W 041°34'2 1.6
2015-Aug-03 23:33S 22°50' W 041°35'3 3.3
2015-Aug-03 22:31S 22°52' W 041°38'3 3.2
2015-Aug-03 21:29S 22°54' W 041°41'3 3.3
2015-Aug-03 20:32S 22°56' W 041°43'3 3.3
2015-Aug-03 19:30S 22°58' W 041°46'3 3.4
2015-Aug-03 18:33S 22°60' W 041°49'3 3.1
2015-Aug-03 17:31S 23°02' W 041°52'  

Dump ship's entire track history